• Join FlightAware (Why Join?)
  • Login
  • US Flag 
Rudolph Flight #1: Scheduled 
09:35PM EST


 

Airport Tracker/Info


-or-


 

Live Flight TrackerFlight Track Log ✈ SWA2857 ✈ 09-May-2013 ✈ KBOS - KMKE

Flight Track Log - Related Links

Times and Time Zones

All times are in EDT time to prevent confusion due to time zone crossing. See the SWA2857 flight status page for this flight to view local times or setup timezone preferences in your user account.

Time Position Orientation Groundspeed Altitude Reporting Facility
EDT Latitude Longitude Course Direction KTS MPH feet Rate Location/Type
10:06PM 42.3667 -70.9667 90° East 138 159 1,100  Level KA90
10:07PM 42.3667 -70.9500 90° East 147 169 1,800 2,580 Climbing KA90
10:09PM 42.4011 -70.8067 72° East 227 261 7,200 3,060 Climbing Boston Center
10:10PM 42.4736 -70.7736 19° North 237 273 10,800 3,600 Climbing Boston Center
10:11PM 42.5436 -70.8508 321° Northwest 218 251 14,400 3,180 Climbing Boston Center
10:12PM 42.6097 -70.9675 308° West 318 366 17,200 2,640 Climbing Boston Center
10:13PM 42.6586 -71.0511 309° West 360 414 19,700 3,480 Climbing Boston Center
10:14PM 42.7417 -71.1992 307° West 402 463 24,200 3,780 Climbing Boston Center
10:15PM 42.7911 -71.3367 296° West 408 470 27,300 2,700 Climbing Boston Center
10:16PM 42.8069 -71.4950 278° West 408 470 29,700 1,500 Climbing Boston Center
10:17PM 42.8208 -71.6617 277° West 426 490 30,400 840 Climbing Boston Center
10:18PM 42.8344 -71.8286 276° West 438 504 31,400 1,380 Climbing Boston Center
10:19PM 42.8517 -71.9928 278° West 449 517 33,200 1,800 Climbing Boston Center
10:20PM 42.8669 -72.1597 277° West 449 517 35,100 1,680 Climbing Boston Center
10:21PM 42.8881 -72.3239 280° West 442 509 36,600 1,500 Climbing Boston Center
10:22PM 42.9006 -72.4911 276° West 442 509 38,100 1,380 Climbing Boston Center
10:23PM 42.9086 -72.6669 274° West 442 509 39,400 900 Climbing Boston Center
10:24PM 42.9228 -72.8256 277° West 436 502 40,000 240 Climbing Boston Center
10:25PM 42.9347 -72.9844 276° West 436 502 40,000  Level Boston Center
10:26PM 42.9544 -73.1664 278° West 436 502 40,000  Level Boston Center
10:27PM 42.9681 -73.3283 277° West 436 502 40,000  Level Boston Center
10:28PM 42.9750 -73.4872 273° West 431 496 40,000  Level Boston Center
10:29PM 42.9881 -73.6464 276° West 431 496 40,000  Level Boston Center
10:30PM 43.0025 -73.8397 276° West 425 489 40,000  Level Boston Center
10:31PM 43.0150 -73.9992 276° West 425 489 40,000  Level Boston Center
10:32PM 43.0272 -74.1583 276° West 425 489 40,000  Level Boston Center
10:33PM 43.0392 -74.3206 276° West 425 489 40,000  Level Boston Center
10:34PM 43.0511 -74.4772 276° West 425 489 40,000  Level Boston Center
10:35PM 43.0608 -74.6369 275° West 425 489 40,000  Level Boston Center
10:36PM 43.0739 -74.8106 276° West 425 489 40,000  Level Boston Center
10:37PM 43.0850 -74.9703 275° West 425 489 40,000  Level Boston Center
10:38PM 43.0961 -75.1300 275° West 425 489 40,000  Level Boston Center
10:39PM 43.1044 -75.2925 274° West 425 489 40,000  Level Boston Center
10:40PM 43.0903 -75.4483 263° West 425 489 40,000  Level Boston Center
10:41PM 43.0672 -75.6036 259° West 419 482 40,000  Level Boston Center
10:42PM 43.0461 -75.7586 259° West 425 489 40,000  Level Boston Center
10:43PM 43.0225 -75.9167 259° West 425 489 40,000  Level Boston Center
10:44PM 42.9914 -76.1319 259° West 413 475 40,000  Level Cleveland Center
10:45PM 42.9683 -76.2897 259° West 413 475 40,000  Level Cleveland Center
10:46PM 42.9467 -76.4389 259° West 413 475 40,000  Level Cleveland Center
10:47PM 42.9247 -76.5906 259° West 413 475 40,000  Level Cleveland Center
10:48PM 42.8992 -76.7567 258° West 413 475 40,000  Level Cleveland Center
10:49PM 42.8769 -76.9025 258° West 408 470 40,000  Level Cleveland Center
10:50PM 42.8544 -77.0514 258° West 408 470 40,000  Level Cleveland Center
10:51PM 42.8317 -77.2025 258° West 408 470 40,000  Level Cleveland Center
10:52PM 42.8089 -77.3511 258° West 408 470 40,000  Level Cleveland Center
10:53PM 42.7858 -77.4994 258° West 408 470 40,000  Level Cleveland Center
10:54PM 42.7606 -77.6478 257° West 408 470 40,000  Level Cleveland Center
10:55PM 42.7411 -77.7844 259° West 408 470 40,000  Level Cleveland Center
10:56PM 42.7175 -77.9353 258° West 416 479 40,000  Level Cleveland Center
10:57PM 42.6939 -78.0858 258° West 411 473 40,000  Level Cleveland Center
10:58PM 42.6678 -78.2339 257° West 411 473 40,000  Level Cleveland Center
10:59PM 42.6436 -78.3817 258° West 411 473 40,000  Level Cleveland Center
11:00PM 42.6192 -78.5292 257° West 411 473 40,000  Level Cleveland Center
11:01PM 42.5944 -78.6767 257° West 411 473 40,000  Level Cleveland Center
11:02PM 42.5697 -78.8239 257° West 411 473 40,000  Level Cleveland Center
11:03PM 42.5450 -78.9797 258° West 416 479 40,000  Level Cleveland Center
11:04PM 42.5197 -79.1239 257° West 416 479 40,000  Level Cleveland Center
11:05PM 42.4925 -79.2767 256° West 411 473 40,000  Level Cleveland Center
11:06PM 42.4981 -79.4231 273° West 411 473 40,000  Level Cleveland Center
11:07PM 42.5078 -79.5722 275° West 400 460 40,000  Level Cleveland Center
11:08PM 42.5153 -79.7242 274° West 400 460 40,000  Level Cleveland Center
11:09PM 42.5206 -79.8733 273° West 405 466 40,000  Level Cleveland Center
11:10PM 42.5278 -80.0450 273° West 405 466 40,000  Level Cleveland Center
11:11PM 42.5325 -80.1917 273° West 405 466 40,000  Level Cleveland Center
11:12PM 42.5392 -80.3464 273° West 405 466 40,000  Level Cleveland Center
11:13PM 42.5456 -80.4789 274° West 400 460 40,000  Level Cleveland Center
11:14PM 42.5519 -80.6311 273° West 405 466 40,000  Level Cleveland Center
11:15PM 42.5558 -80.7747 272° West 405 466 40,000  Level Cleveland Center
11:16PM 42.5619 -80.9214 273° West 400 460 40,000  Level Cleveland Center
11:17PM 42.5675 -81.0708 273° West 400 460 40,000  Level Cleveland Center
11:18PM 42.5731 -81.2203 273° West 400 460 40,000  Level Cleveland Center
11:19PM 42.5764 -81.3697 272° West 400 460 40,000  Level Cleveland Center
11:20PM 42.5939 -81.5139 279° West 405 466 40,000  Level Cleveland Center
11:21PM 42.6197 -81.6667 283° West 396 456 40,000  Level Cleveland Center
11:22PM 42.6453 -81.8111 284° West 386 444 40,000  Level Cleveland Center
11:23PM 42.6689 -81.9500 283° West 386 444 40,000  Level Cleveland Center
11:24PM 42.6942 -82.0917 284° West 386 444 40,000  Level Cleveland Center
11:25PM 42.7192 -82.2364 283° West 386 444 40,000  Level Cleveland Center
11:26PM 42.7442 -82.3783 284° West 392 451 40,000  Level Cleveland Center
11:27PM 42.7669 -82.5233 282° West 392 451 40,000  Level Cleveland Center
11:28PM 42.7914 -82.6683 283° West 392 451 40,000  Level Cleveland Center
11:29PM 42.8139 -82.8106 282° West 392 451 40,000  Level Cleveland Center
11:30PM 42.8381 -82.9503 283° West 392 451 40,000  Level Cleveland Center
11:31PM 42.8603 -83.0900 282° West 392 451 40,000  Level Cleveland Center
11:32PM 42.8839 -83.2353 283° West 392 451 40,000  Level Cleveland Center
11:33PM 42.9056 -83.3781 282° West 392 451 40,000  Level Cleveland Center
11:34PM 42.9292 -83.5208 283° West 392 451 40,000  Level Cleveland Center
11:35PM 42.9506 -83.6639 282° West 392 451 40,000  Level Cleveland Center
11:36PM 42.9717 -83.8039 282° West 392 451 40,000  Level Cleveland Center
11:37PM 42.9844 -83.9408 277° West 387 445 40,000  Level Cleveland Center
11:38PM 42.9969 -84.0806 277° West 382 440 40,000  Level Cleveland Center
11:39PM 43.0097 -84.2092 278° West 382 440 40,000  Level Cleveland Center
11:40PM 43.0236 -84.3606 277° West 382 440 40,000  Level Cleveland Center
11:42PM 43.0378 -84.4989 278° West 372 428 40,000  Level Chicago Center
11:43PM 43.0514 -84.6419 277° West 379 436 40,000  Level Chicago Center
11:44PM 43.0639 -84.7850 277° West 380 437 40,000  Level Chicago Center
11:45PM 43.0769 -84.9283 277° West 381 438 40,000  Level Chicago Center
11:46PM 43.0889 -85.0728 277° West 383 441 40,000  Level Chicago Center
11:47PM 43.1019 -85.2161 277° West 381 438 40,000  Level Chicago Center
11:48PM 43.1144 -85.3606 277° West 382 440 40,000  Level Chicago Center
11:49PM 43.1267 -85.5056 277° West 387 445 40,000  Level Chicago Center
11:50PM 43.1408 -85.6783 276° West 384 442 40,000 -420 Level Chicago Center
11:51PM 43.1525 -85.8217 276° West 385 443 39,200 -900 Descending Chicago Center
11:52PM 43.1644 -85.9711 276° West 402 463 38,200 -1,320 Descending Chicago Center
11:53PM 43.1586 -86.1200 267° West 404 465 36,600 -2,040 Descending Chicago Center
11:54PM 43.1414 -86.2642 261° West 395 455 34,100 -2,820 Descending Chicago Center
11:55PM 43.1253 -86.4067 261° West 386 444 31,000 -3,180 Descending Chicago Center
11:56PM 43.1086 -86.5519 261° West 390 449 27,700 -3,480 Descending Chicago Center
11:57PM 43.0881 -86.7292 261° West 396 456 24,000 -3,240 Descending Chicago Center
11:58PM 43.0711 -86.8747 261° West 390 449 21,200 -2,640 Descending Chicago Center
11:59PM 43.0478 -87.0131 257° West 378 435 18,700 -2,400 Descending Chicago Center
12:00AM 43.0106 -87.1400 248° West 366 421 16,400 -2,160 Descending Chicago Center
12:01AM 42.9753 -87.2628 249° West 353 406 14,400 -2,040 Descending Chicago Center
12:02AM 42.9411 -87.3806 248° West 337 388 12,300 -1,800 Descending Chicago Center
12:03AM 42.9100 -87.4894 249° West 321 369 10,800 -1,680 Descending Chicago Center
12:04AM 42.8819 -87.5869 249° West 281 323 9,000 -1,980 Descending Chicago Center
12:05AM 42.8342 -87.6669 231° Southwest 269 310 6,900 -2,100 Descending Chicago Center
12:06AM 42.7856 -87.7442 229° Southwest 267 307 4,800 -1,920 Descending Chicago Center
12:07AM 42.7553 -87.8261 243° Southwest 258 297 3,000 -900 Descending Chicago Center
12:08AM 42.7833 -87.8967 298° West 227 261 3,000 -240 Level Chicago Center
12:09AM 42.8342 -87.9142 346° North 175 201 2,600 -600 Descending Chicago Center
12:10AM 42.8717 -87.9069 North 148 170 1,900 -660 Descending Chicago Center
12:11AM 42.9000 -87.9000 10° North 106 122 1,500 -600 Descending KMKE
12:12AM 42.9333 -87.9000 360° North 106 122 900 -600 Descending KMKE
12:14AM 42.9469 -87.8971 North  Level Estimated